Time;durP1;ratioP1;P1;durP2;ratioP2;P2;SDS_P1;SDS_P2;PMS_P1;PMS_P2;Temp;Humidity;BMP_temperature;BMP_pressure;BME280_temperature;BME280_humidity;BME280_pressure;Samples;Min_cycle;Max_cycle;Signal;HPM_P1;HPM_P2
2022/12/26 00:01:39;;;;;;;618.10;576.90;;;10.60;99.90;;;;;;5025231;28;20451;-85
2022/12/26 00:04:06;;;;;;;621.57;578.67;;;10.50;99.90;;;;;;5025034;28;20555;-85
2022/12/26 00:06:34;;;;;;;628.77;585.37;;;10.50;99.90;;;;;;5024362;28;20909;-85
2022/12/26 00:09:03;;;;;;;621.63;579.03;;;10.50;99.90;;;;;;5024449;28;20454;-86
2022/12/26 00:11:30;;;;;;;635.67;590.57;;;10.50;99.90;;;;;;5023041;28;20477;-85
2022/12/26 00:13:59;;;;;;;629.70;585.10;;;10.60;99.90;;;;;;5024106;28;20484;-86
2022/12/26 00:16:27;;;;;;;631.37;587.97;;;10.50;99.90;;;;;;5023652;28;20454;-85
2022/12/26 00:18:54;;;;;;;627.47;583.77;;;10.50;99.90;;;;;;5023639;28;20453;-86
2022/12/26 00:21:22;;;;;;;600.70;560.67;;;10.50;99.90;;;;;;5023244;28;20449;-85
2022/12/26 00:23:50;;;;;;;603.33;562.87;;;10.60;99.90;;;;;;5023985;28;20474;-85
2022/12/26 00:26:19;;;;;;;565.70;530.63;;;10.60;99.90;;;;;;5022795;28;20496;-85
2022/12/26 00:28:46;;;;;;;538.80;506.40;;;10.70;99.90;;;;;;5024891;28;20449;-85
2022/12/26 00:31:15;;;;;;;532.17;501.27;;;10.70;99.90;;;;;;5024585;28;20966;-85
2022/12/26 00:33:42;;;;;;;513.80;485.10;;;10.70;99.90;;;;;;5023631;28;20473;-86
2022/12/26 00:36:12;;;;;;;513.77;485.17;;;10.60;99.90;;;;;;5023219;28;20456;-86
2022/12/26 00:38:40;;;;;;;488.83;462.33;;;10.70;99.90;;;;;;5024504;28;20457;-86
2022/12/26 00:41:09;;;;;;;448.97;425.57;;;10.80;99.90;;;;;;5023760;28;20452;-85
2022/12/26 00:43:36;;;;;;;435.43;414.10;;;10.90;99.90;;;;;;5023113;28;20473;-85
2022/12/26 00:46:04;;;;;;;426.57;406.70;;;10.90;99.90;;;;;;5023760;28;20457;-85
2022/12/26 00:48:31;;;;;;;437.43;416.93;;;10.70;99.90;;;;;;5023422;28;20449;-85
2022/12/26 00:50:59;;;;;;;439.10;417.70;;;10.80;99.90;;;;;;5023492;28;20461;-86
2022/12/26 00:53:26;;;;;;;416.10;397.23;;;10.90;99.90;;;;;;5023743;28;20862;-85
2022/12/26 00:55:53;;;;;;;382.70;365.60;;;11.00;99.90;;;;;;5023897;28;20461;-86
2022/12/26 00:58:22;;;;;;;363.67;348.10;;;11.00;99.90;;;;;;5024425;28;20460;-86
2022/12/26 01:00:50;;;;;;;356.90;341.90;;;11.00;99.90;;;;;;5041624;28;20448;-87
2022/12/26 01:03:17;;;;;;;333.03;319.57;;;11.00;99.90;;;;;;5025497;28;20467;-85
2022/12/26 01:05:45;;;;;;;331.97;318.60;;;11.10;99.90;;;;;;5024595;28;20457;-87
2022/12/26 01:08:12;;;;;;;314.87;302.13;;;11.00;99.90;;;;;;5025202;28;20457;-85
2022/12/26 01:10:41;;;;;;;329.60;316.80;;;11.10;99.90;;;;;;5025053;28;20454;-85
2022/12/26 01:13:08;;;;;;;277.30;266.50;;;11.10;99.90;;;;;;5023845;28;20481;-86
2022/12/26 01:15:36;;;;;;;267.13;257.03;;;11.20;99.90;;;;;;5025026;28;20453;-86
2022/12/26 01:18:04;;;;;;;236.07;227.17;;;11.20;99.90;;;;;;5024318;28;20859;-86
2022/12/26 01:20:31;;;;;;;229.93;221.73;;;11.10;99.90;;;;;;5024450;28;20460;-84
2022/12/26 01:22:57;;;;;;;251.80;242.33;;;11.20;99.90;;;;;;5024060;28;20472;-86
2022/12/26 01:25:24;;;;;;;256.77;247.47;;;11.20;99.90;;;;;;5024241;28;20456;-85
2022/12/26 01:27:51;;;;;;;233.23;224.87;;;11.20;99.90;;;;;;5024181;28;20465;-86
2022/12/26 01:30:18;;;;;;;242.37;233.97;;;11.10;99.90;;;;;;5024624;28;20453;-86
2022/12/26 01:32:46;;;;;;;243.20;234.17;;;11.20;99.90;;;;;;5024261;28;20481;-87
2022/12/26 01:35:13;;;;;;;271.90;262.40;;;11.10;99.90;;;;;;5024057;28;20456;-86
2022/12/26 01:37:40;;;;;;;260.60;251.73;;;11.20;99.90;;;;;;5024168;28;20453;-85
2022/12/26 01:40:07;;;;;;;274.70;265.00;;;11.10;99.90;;;;;;5023808;28;20984;-85
2022/12/26 01:42:39;;;;;;;221.20;213.53;;;11.20;99.90;;;;;;5023404;28;20452;-86
2022/12/26 01:45:17;;;;;;;211.87;204.13;;;11.20;99.90;;;;;;5023586;28;20453;-86
2022/12/26 01:47:49;;;;;;;217.03;209.70;;;11.30;99.90;;;;;;5023889;28;20449;-86
2022/12/26 01:50:30;;;;;;;175.70;168.87;;;11.30;99.90;;;;;;5024080;28;20461;-85
2022/12/26 01:53:02;;;;;;;155.97;150.30;;;11.40;99.90;;;;;;5024220;28;20481;-86
2022/12/26 01:55:31;;;;;;;162.67;157.00;;;11.40;99.90;;;;;;5024286;28;20453;-86
2022/12/26 01:58:02;;;;;;;183.00;176.50;;;11.40;99.90;;;;;;5022282;28;20452;-84
2022/12/26 02:00:29;;;;;;;341.97;330.00;;;11.20;99.90;;;;;;5013362;28;20461;-85
2022/12/26 02:05:50;;;;;;;471.43;451.23;;;11.10;99.90;;;;;;5022493;28;20949;-83
2022/12/26 02:08:21;;;;;;;476.73;455.97;;;11.00;99.90;;;;;;5015356;28;20453;-86
2022/12/26 02:10:51;;;;;;;485.40;463.00;;;11.00;99.90;;;;;;5019042;28;20815;-85
2022/12/26 02:13:19;;;;;;;507.77;482.97;;;11.10;99.90;;;;;;5005329;28;20477;-85
2022/12/26 02:15:47;;;;;;;534.20;506.43;;;11.00;99.90;;;;;;5014759;28;20832;-85
2022/12/26 02:18:15;;;;;;;542.63;513.47;;;11.00;99.90;;;;;;5019902;28;20454;-85
2022/12/26 02:20:52;;;;;;;541.33;511.80;;;11.00;99.90;;;;;;5019408;28;20851;-85
2022/12/26 02:23:58;;;;;;;544.70;514.70;;;11.00;99.90;;;;;;5018655;28;20480;-84
2022/12/26 02:27:05;;;;;;;546.47;517.53;;;11.00;99.90;;;;;;4993857;28;20476;-85
2022/12/26 02:30:23;;;;;;;566.70;534.83;;;11.10;99.90;;;;;;4940516;29;20456;-85
2022/12/26 02:33:23;;;;;;;502.70;477.03;;;10.90;99.90;;;;;;4947741;29;20479;-85
2022/12/26 02:36:05;;;;;;;521.47;493.97;;;10.80;99.90;;;;;;5018822;28;20456;-85
2022/12/26 02:38:40;;;;;;;528.67;500.57;;;10.70;99.90;;;;;;5021389;28;20433;-85
2022/12/26 02:41:19;;;;;;;544.07;512.97;;;10.70;99.90;;;;;;5021490;28;20455;-84
2022/12/26 02:43:52;;;;;;;562.87;528.67;;;10.70;99.90;;;;;;5019573;28;20472;-84
2022/12/26 02:49:20;;;;;;;581.63;542.67;;;10.70;99.90;;;;;;5018406;28;20498;-84
2022/12/26 03:15:17;;;;;;;556.23;521.97;;;10.70;99.90;;;;;;4979898;28;20453;-84
2022/12/26 03:17:47;;;;;;;554.27;521.67;;;10.60;99.90;;;;;;5008733;28;20449;-84
2022/12/26 03:20:18;;;;;;;553.57;520.67;;;10.60;99.90;;;;;;5019423;28;20457;-85
2022/12/26 03:22:48;;;;;;;554.77;520.60;;;10.60;99.90;;;;;;5020746;28;20445;-84
2022/12/26 03:28:07;;;;;;;563.87;527.70;;;10.60;99.90;;;;;;5021476;28;20520;-84
2022/12/26 03:30:49;;;;;;;567.80;531.40;;;10.60;99.90;;;;;;5018899;28;20832;-85
2022/12/26 03:36:12;;;;;;;577.73;540.67;;;10.60;99.90;;;;;;5011086;28;21876;-85
2022/12/26 03:38:54;;;;;;;567.07;529.47;;;10.50;99.90;;;;;;5022737;28;20472;-85
2022/12/26 04:46:30;;;;;;;583.83;550.37;;;10.30;99.90;;;;;;5022140;28;20459;-85
2022/12/26 04:51:42;;;;;;;582.73;548.87;;;10.40;99.90;;;;;;5002832;28;20498;-85
2022/12/26 04:54:09;;;;;;;582.70;548.80;;;10.30;99.90;;;;;;5022622;28;20477;-85
2022/12/26 04:56:35;;;;;;;577.47;545.40;;;10.40;99.90;;;;;;5023520;28;20455;-85
2022/12/26 04:59:03;;;;;;;572.77;540.27;;;10.40;99.90;;;;;;5023024;28;20449;-85
2022/12/26 05:09:48;;;;;;;621.97;580.80;;;10.30;99.90;;;;;;5024074;28;20452;-86
2022/12/26 05:12:15;;;;;;;619.50;576.90;;;10.30;99.90;;;;;;5024418;28;20454;-86
2022/12/26 05:14:43;;;;;;;622.57;578.80;;;10.20;99.90;;;;;;5022395;28;20473;-85
2022/12/26 05:31:03;;;;;;;661.77;610.10;;;10.20;99.90;;;;;;5023529;28;20464;-85
2022/12/26 05:36:15;;;;;;;653.20;601.43;;;10.30;99.90;;;;;;5004022;28;20433;-85
2022/12/26 05:38:42;;;;;;;642.50;590.50;;;10.30;99.90;;;;;;5004949;28;20516;-85
2022/12/26 05:41:09;;;;;;;647.43;595.60;;;10.30;99.90;;;;;;5023029;28;20457;-85
2022/12/26 05:43:36;;;;;;;648.53;597.43;;;10.30;99.90;;;;;;5023788;28;20476;-85
2022/12/26 05:46:04;;;;;;;641.60;590.37;;;10.40;99.90;;;;;;5022990;28;20544;-85
2022/12/26 05:48:31;;;;;;;642.30;592.10;;;10.30;99.90;;;;;;5023157;28;20449;-86
2022/12/26 05:50:59;;;;;;;622.10;574.40;;;10.30;99.90;;;;;;5022334;28;20455;-86
2022/12/26 05:53:25;;;;;;;626.93;581.70;;;10.20;99.90;;;;;;5020796;28;20503;-86
2022/12/26 05:55:52;;;;;;;622.00;578.73;;;10.20;99.90;;;;;;5019225;28;20472;-85
2022/12/26 05:58:19;;;;;;;627.27;584.10;;;10.10;99.90;;;;;;5020088;28;20976;-85
2022/12/26 06:00:46;;;;;;;622.60;578.80;;;10.10;99.90;;;;;;5019656;28;20453;-85
2022/12/26 06:03:14;;;;;;;621.00;578.30;;;10.10;99.90;;;;;;5018669;28;20503;-85
2022/12/26 06:05:41;;;;;;;627.20;586.67;;;10.00;99.90;;;;;;5022651;28;20453;-85
2022/12/26 06:08:07;;;;;;;617.10;578.03;;;10.00;99.90;;;;;;5022043;28;20445;-85
2022/12/26 06:10:34;;;;;;;612.63;573.97;;;10.00;99.90;;;;;;5021223;28;20453;-85
2022/12/26 06:13:01;;;;;;;610.83;573.13;;;10.00;99.90;;;;;;5021286;28;20483;-85
2022/12/26 06:15:28;;;;;;;604.27;567.17;;;9.90;99.90;;;;;;5022369;28;20480;-86
2022/12/26 06:17:55;;;;;;;604.50;568.17;;;9.90;99.90;;;;;;5022454;28;20449;-85
2022/12/26 06:20:23;;;;;;;598.53;563.40;;;9.90;99.90;;;;;;5023009;28;20457;-85
2022/12/26 06:22:50;;;;;;;591.90;558.30;;;9.90;99.90;;;;;;5021052;28;20479;-85
2022/12/26 06:25:17;;;;;;;599.57;564.60;;;9.90;99.90;;;;;;5022129;28;20449;-85
2022/12/26 06:27:44;;;;;;;600.07;564.50;;;10.00;99.90;;;;;;5016636;28;20460;-85
2022/12/26 06:30:11;;;;;;;593.23;557.87;;;9.90;99.90;;;;;;5024711;28;20460;-85
2022/12/26 06:32:38;;;;;;;595.97;560.97;;;9.80;99.90;;;;;;5022903;28;20984;-85
2022/12/26 06:35:05;;;;;;;596.57;560.90;;;9.80;99.90;;;;;;5023652;28;20989;-85
2022/12/26 06:37:34;;;;;;;594.67;559.47;;;9.80;99.90;;;;;;5022959;28;20453;-85
2022/12/26 06:40:01;;;;;;;597.63;561.87;;;9.80;99.90;;;;;;5025153;28;20464;-85
2022/12/26 06:42:28;;;;;;;589.83;553.90;;;9.90;99.90;;;;;;5024049;28;20981;-85
2022/12/26 06:44:55;;;;;;;601.50;565.33;;;9.90;99.90;;;;;;5024724;28;20452;-85
2022/12/26 06:47:21;;;;;;;602.13;564.27;;;9.80;99.90;;;;;;5023656;28;20977;-85
2022/12/26 06:49:48;;;;;;;600.97;562.77;;;9.90;99.90;;;;;;5024405;28;20833;-85
2022/12/26 06:52:15;;;;;;;608.30;569.00;;;9.90;99.90;;;;;;5023264;28;20445;-85
2022/12/26 06:54:43;;;;;;;613.70;573.30;;;9.90;99.90;;;;;;5025557;28;20854;-85
2022/12/26 06:57:10;;;;;;;625.80;583.30;;;9.90;99.90;;;;;;5023637;28;20449;-86
2022/12/26 06:59:37;;;;;;;621.60;578.70;;;9.90;99.90;;;;;;5024289;28;20467;-85
2022/12/26 07:02:03;;;;;;;614.60;572.17;;;10.00;99.90;;;;;;5024282;28;21065;-83
2022/12/26 07:04:30;;;;;;;612.33;571.83;;;10.00;99.90;;;;;;5023812;28;20474;-84
2022/12/26 07:06:57;;;;;;;615.43;575.00;;;10.00;99.90;;;;;;5023169;28;20453;-85
2022/12/26 07:09:23;;;;;;;599.73;562.43;;;10.00;99.90;;;;;;5023116;28;20451;-84
2022/12/26 07:11:51;;;;;;;598.10;562.20;;;10.00;99.90;;;;;;5022202;28;20437;-85
2022/12/26 07:14:18;;;;;;;598.50;564.20;;;10.10;99.90;;;;;;5021983;28;20473;-84
2022/12/26 07:16:46;;;;;;;585.47;553.83;;;10.10;99.90;;;;;;5021533;28;20489;-84
2022/12/26 07:19:14;;;;;;;574.00;544.13;;;10.10;99.90;;;;;;5021691;28;20504;-84
2022/12/26 07:21:42;;;;;;;566.83;537.63;;;10.10;99.90;;;;;;5022117;28;20449;-85
2022/12/26 07:24:14;;;;;;;554.30;526.40;;;10.00;99.90;;;;;;5022330;28;20476;-85
2022/12/26 07:26:41;;;;;;;528.83;504.43;;;9.90;99.90;;;;;;5021051;28;20461;-84
2022/12/26 07:29:10;;;;;;;517.17;494.20;;;9.80;99.90;;;;;;5020798;28;20453;-83
2022/12/26 07:31:37;;;;;;;486.33;465.63;;;9.80;99.90;;;;;;5021335;28;20833;-83
2022/12/26 07:34:03;;;;;;;493.23;472.20;;;9.70;99.90;;;;;;5021769;28;20485;-83
2022/12/26 07:36:30;;;;;;;474.53;455.13;;;9.70;99.90;;;;;;5004435;28;20458;-85
2022/12/26 07:38:57;;;;;;;465.43;446.50;;;9.70;99.90;;;;;;5022549;28;20449;-85
2022/12/26 07:44:10;;;;;;;476.03;455.47;;;9.70;99.90;;;;;;5022645;28;20459;-85
2022/12/26 07:46:37;;;;;;;472.03;452.13;;;9.50;99.90;;;;;;5022765;28;20734;-86
2022/12/26 07:49:04;;;;;;;471.07;450.63;;;9.50;99.90;;;;;;5023727;28;20456;-85
2022/12/26 07:51:31;;;;;;;470.40;450.10;;;9.50;99.90;;;;;;5022064;28;20457;-85
2022/12/26 07:53:58;;;;;;;429.57;411.60;;;9.50;99.90;;;;;;5023399;28;20910;-86
2022/12/26 07:56:25;;;;;;;446.90;428.50;;;9.60;99.90;;;;;;5023289;28;20456;-85
2022/12/26 07:58:52;;;;;;;454.47;435.27;;;9.60;99.90;;;;;;5020547;28;20606;-85
2022/12/26 08:01:20;;;;;;;460.07;440.27;;;9.60;99.90;;;;;;5022694;28;20453;-85
2022/12/26 08:03:48;;;;;;;459.13;439.40;;;9.50;99.90;;;;;;5014591;28;20990;-85
2022/12/26 08:06:15;;;;;;;458.47;439.00;;;9.60;99.90;;;;;;5022666;28;20453;-86
2022/12/26 08:08:41;;;;;;;475.53;454.13;;;9.50;99.90;;;;;;5022803;28;20449;-85
2022/12/26 08:11:11;;;;;;;485.53;463.77;;;9.40;99.90;;;;;;5023448;28;20958;-85
2022/12/26 08:13:38;;;;;;;518.33;493.87;;;9.40;99.90;;;;;;5021933;28;20488;-85
2022/12/26 08:16:06;;;;;;;523.53;497.73;;;9.40;99.90;;;;;;5022999;28;20456;-85
2022/12/26 08:18:35;;;;;;;542.00;514.77;;;9.30;99.90;;;;;;5022925;28;20454;-85
2022/12/26 08:21:02;;;;;;;547.40;519.07;;;9.40;99.90;;;;;;5023687;28;20587;-85
2022/12/26 08:23:29;;;;;;;552.83;523.43;;;9.40;99.90;;;;;;5023525;28;20480;-85
2022/12/26 08:25:56;;;;;;;560.40;530.80;;;9.40;99.90;;;;;;5023044;28;20532;-85
2022/12/26 08:28:23;;;;;;;559.63;530.27;;;9.40;99.90;;;;;;5026317;28;20488;-85
2022/12/26 08:30:50;;;;;;;559.87;530.20;;;9.50;99.90;;;;;;5018618;28;20850;-85
2022/12/26 08:33:17;;;;;;;566.23;536.03;;;9.40;99.90;;;;;;5020749;28;20496;-85
2022/12/26 08:35:45;;;;;;;563.70;533.60;;;9.50;99.90;;;;;;5021007;28;20457;-86
2022/12/26 08:38:11;;;;;;;559.10;528.97;;;9.50;99.90;;;;;;5022818;28;20529;-85
2022/12/26 08:40:38;;;;;;;555.10;525.47;;;9.40;99.90;;;;;;5022197;28;20465;-85
2022/12/26 08:43:05;;;;;;;552.73;523.40;;;9.40;99.90;;;;;;5023652;28;20473;-85
2022/12/26 08:45:33;;;;;;;556.50;526.70;;;9.40;99.90;;;;;;5023965;28;20441;-85
2022/12/26 08:48:01;;;;;;;546.83;518.63;;;9.40;99.90;;;;;;5023635;28;20453;-85
2022/12/26 08:50:28;;;;;;;527.57;500.57;;;9.40;99.90;;;;;;5023198;28;20484;-86
2022/12/26 08:52:56;;;;;;;511.83;486.57;;;9.40;99.90;;;;;;5024616;28;20483;-85
2022/12/26 08:55:23;;;;;;;495.67;472.07;;;9.60;99.90;;;;;;5023549;28;20513;-85
2022/12/26 08:57:50;;;;;;;469.97;448.80;;;9.60;99.90;;;;;;5022768;28;20517;-85
2022/12/26 09:00:18;;;;;;;432.93;414.23;;;9.70;99.90;;;;;;5022915;28;20460;-86
2022/12/26 09:02:45;;;;;;;409.63;392.13;;;9.80;99.90;;;;;;5024185;28;20453;-87
2022/12/26 09:05:11;;;;;;;395.40;379.20;;;9.80;99.90;;;;;;5023483;28;20828;-85
2022/12/26 09:07:38;;;;;;;321.57;309.00;;;10.00;99.90;;;;;;5024003;28;20453;-85
2022/12/26 09:10:07;;;;;;;303.80;292.40;;;10.20;99.90;;;;;;5023783;28;20450;-88
2022/12/26 09:12:34;;;;;;;247.27;238.30;;;10.20;99.90;;;;;;5023393;28;20461;-86
2022/12/26 09:15:00;;;;;;;198.27;190.17;;;10.30;99.90;;;;;;5023411;28;21008;-85
2022/12/26 09:17:27;;;;;;;172.80;166.53;;;10.40;99.90;;;;;;5022896;28;20457;-85
2022/12/26 09:19:55;;;;;;;167.80;161.43;;;10.50;99.90;;;;;;5022282;28;20457;-86
2022/12/26 09:25:08;;;;;;;91.83;88.57;;;10.50;99.90;;;;;;5022542;28;20432;-87
2022/12/26 09:27:34;;;;;;;76.03;73.17;;;10.60;99.90;;;;;;5023982;28;20472;-85
2022/12/26 09:30:01;;;;;;;48.53;46.73;;;10.50;99.90;;;;;;5022671;28;20449;-85
2022/12/26 09:32:32;;;;;;;59.60;57.20;;;10.40;99.90;;;;;;5022516;28;20480;-86
2022/12/26 09:34:59;;;;;;;74.43;71.23;;;10.40;99.90;;;;;;5021746;28;20495;-85
2022/12/26 09:37:26;;;;;;;57.03;54.83;;;10.40;99.90;;;;;;5021006;28;20453;-84
2022/12/26 09:39:53;;;;;;;62.30;59.93;;;10.50;99.90;;;;;;5020464;28;20456;-86
2022/12/26 09:42:36;;;;;;;70.57;68.07;;;10.50;99.90;;;;;;5020367;28;20449;-85
2022/12/26 09:45:11;;;;;;;52.77;50.47;;;10.50;99.90;;;;;;5020921;28;20959;-85
2022/12/26 09:47:46;;;;;;;48.93;46.83;;;10.60;99.90;;;;;;5021083;28;20449;-85
2022/12/26 09:50:20;;;;;;;33.73;32.43;;;10.70;99.90;;;;;;5020043;28;20460;-87
2022/12/26 09:56:08;;;;;;;12.13;7.50;;;10.90;99.90;;;;;;5013247;28;20457;-84
2022/12/26 09:58:44;;;;;;;8.20;7.60;;;11.00;99.90;;;;;;5019859;28;20487;-84
2022/12/26 10:01:14;;;;;;;7.27;6.67;;;11.10;99.90;;;;;;5021179;28;20449;-84
2022/12/26 10:03:44;;;;;;;4.73;3.70;;;11.10;99.90;;;;;;5017338;28;20475;-84
2022/12/26 10:06:15;;;;;;;6.40;2.90;;;11.20;99.90;;;;;;5023266;28;20453;-84
2022/12/26 10:08:58;;;;;;;5.03;3.10;;;11.30;99.90;;;;;;5024308;28;20449;-84
2022/12/26 10:11:38;;;;;;;4.60;2.53;;;11.30;99.90;;;;;;5024129;28;20459;-84
2022/12/26 10:14:11;;;;;;;7.43;2.63;;;11.30;99.90;;;;;;5022839;28;20480;-85
2022/12/26 10:16:58;;;;;;;4.60;2.70;;;11.30;99.90;;;;;;5024256;28;20453;-85
2022/12/26 10:19:56;;;;;;;6.03;4.20;;;11.40;99.90;;;;;;5020791;28;20444;-85
2022/12/26 10:22:36;;;;;;;4.77;2.20;;;11.30;99.90;;;;;;5000496;28;20983;-85
2022/12/26 10:28:47;;;;;;;10.10;2.80;;;11.30;99.90;;;;;;4997019;28;20465;-86
2022/12/26 10:31:18;;;;;;;6.90;3.40;;;11.20;99.90;;;;;;4981663;28;20452;-87
2022/12/26 10:33:49;;;;;;;4.40;2.90;;;11.10;99.90;;;;;;5022798;28;20473;-83
2022/12/26 10:36:28;;;;;;;5.50;3.37;;;11.10;99.90;;;;;;5025909;28;20463;-84
2022/12/26 10:38:58;;;;;;;5.93;3.07;;;11.00;99.90;;;;;;5026150;28;20448;-86
2022/12/26 10:41:27;;;;;;;5.40;3.17;;;11.00;99.90;;;;;;5025568;28;20472;-84
2022/12/26 10:43:54;;;;;;;4.90;3.43;;;11.00;99.90;;;;;;5024112;28;20831;-84
2022/12/26 10:46:38;;;;;;;8.03;3.00;;;11.00;99.90;;;;;;5022772;28;20464;-84
2022/12/26 10:49:07;;;;;;;3.60;2.60;;;10.90;99.90;;;;;;5023534;28;20464;-84
2022/12/26 10:51:36;;;;;;;5.73;2.77;;;11.10;99.90;;;;;;5023486;28;20449;-86
2022/12/26 10:54:15;;;;;;;3.93;1.87;;;11.00;99.90;;;;;;5021244;28;20519;-84
2022/12/26 10:56:43;;;;;;;5.93;2.60;;;11.00;99.90;;;;;;5021647;28;20511;-83
2022/12/26 10:59:15;;;;;;;4.57;2.57;;;11.00;99.90;;;;;;5023968;28;20460;-83
2022/12/26 11:01:51;;;;;;;3.37;1.90;;;11.00;99.90;;;;;;5008410;28;20456;-83
2022/12/26 11:04:55;;;;;;;4.53;1.60;;;11.10;99.90;;;;;;5021857;28;20469;-83
2022/12/26 11:11:25;;;;;;;3.87;2.20;;;11.00;99.90;;;;;;4975266;28;20459;-84
2022/12/26 11:14:48;;;;;;;8.10;2.47;;;11.10;99.90;;;;;;4974785;28;20478;-86
2022/12/26 11:17:39;;;;;;;3.92;1.25;;;11.20;99.90;;;;;;4979568;28;20457;-83
2022/12/26 11:20:18;;;;;;;5.35;1.40;;;11.30;99.90;;;;;;4980101;28;20466;-83
2022/12/26 11:22:46;;;;;;;4.03;1.50;;;11.30;99.90;;;;;;5014526;28;20202;-83
2022/12/26 11:25:33;;;;;;;8.53;1.80;;;11.30;99.90;;;;;;5022449;28;20453;-84
2022/12/26 11:34:27;;;;;;;4.80;1.30;;;11.40;99.90;;;;;;5039104;22;20481;-83
2022/12/26 11:36:54;;;;;;;7.90;1.83;;;11.40;99.90;;;;;;5040967;28;20969;-84
2022/12/26 11:39:24;;;;;;;4.50;1.87;;;11.60;99.90;;;;;;5040799;28;20957;-83
2022/12/26 11:41:52;;;;;;;10.10;1.70;;;11.60;99.90;;;;;;5041816;28;20448;-82
2022/12/26 11:44:25;;;;;;;9.43;1.57;;;11.70;99.90;;;;;;5026159;28;20480;-84
2022/12/26 11:46:56;;;;;;;4.27;1.30;;;11.70;99.90;;;;;;5021932;28;20453;-83
2022/12/26 11:49:58;;;;;;;4.83;1.33;;;11.90;99.90;;;;;;5021767;28;20460;-84
2022/12/26 11:52:36;;;;;;;4.13;1.73;;;12.20;99.90;;;;;;5017385;28;20457;-83
2022/12/26 11:55:26;;;;;;;5.20;1.23;;;12.50;99.90;;;;;;5021504;28;20485;-85
2022/12/26 12:01:35;;;;;;;7.13;1.43;;;12.40;99.90;;;;;;4940800;29;20508;-83
2022/12/26 12:04:02;;;;;;;5.60;1.40;;;12.20;99.90;;;;;;5015901;28;21062;-83
2022/12/26 12:06:53;;;;;;;4.40;1.50;;;12.20;99.90;;;;;;5020358;28;20454;-83
2022/12/26 12:09:29;;;;;;;3.70;1.30;;;12.20;99.90;;;;;;5020322;28;20865;-84
2022/12/26 12:12:00;;;;;;;4.40;1.40;;;12.10;99.90;;;;;;5020003;28;20812;-83
2022/12/26 12:14:46;;;;;;;4.53;1.30;;;12.00;99.90;;;;;;5020168;28;20472;-83
2022/12/26 12:17:21;;;;;;;3.97;1.40;;;12.10;99.90;;;;;;5020634;28;20463;-84
2022/12/26 12:20:05;;;;;;;3.37;1.23;;;12.30;99.90;;;;;;5019831;28;20810;-86
2022/12/26 12:22:59;;;;;;;10.33;1.43;;;12.60;99.90;;;;;;5020407;28;20453;-85
2022/12/26 12:25:39;;;;;;;8.10;1.20;;;12.60;99.90;;;;;;5019846;28;20833;-84
2022/12/26 12:28:18;;;;;;;5.10;1.40;;;12.30;99.90;;;;;;5020824;28;21029;-84
2022/12/26 12:30:52;;;;;;;6.20;1.60;;;12.10;99.90;;;;;;5020594;28;20456;-84
2022/12/26 12:33:32;;;;;;;8.03;1.77;;;11.80;99.90;;;;;;5019543;28;20484;-83
2022/12/26 12:36:09;;;;;;;9.93;1.40;;;11.70;99.90;;;;;;5019730;28;20489;-84
2022/12/26 12:38:52;;;;;;;3.83;1.30;;;11.60;99.90;;;;;;5018610;28;20957;-83
2022/12/26 12:41:56;;;;;;;5.13;1.80;;;11.60;99.90;;;;;;5018906;28;20548;-84
2022/12/26 12:44:34;;;;;;;3.50;1.67;;;11.70;99.90;;;;;;4985107;28;20508;-84
2022/12/26 12:47:11;;;;;;;3.97;1.80;;;11.70;99.90;;;;;;5019358;28;20462;-84
2022/12/26 12:49:51;;;;;;;4.83;1.80;;;11.70;99.90;;;;;;5019594;28;20495;-85
2022/12/26 12:52:31;;;;;;;4.87;1.67;;;11.80;99.90;;;;;;5018615;28;20453;-84
2022/12/26 12:55:18;;;;;;;4.77;1.60;;;11.90;99.90;;;;;;5018455;28;21000;-84
2022/12/26 13:01:12;;;;;;;6.23;2.80;;;11.80;99.90;;;;;;5019190;28;20445;-84
2022/12/26 13:03:45;;;;;;;5.47;2.10;;;11.20;99.90;;;;;;5017310;28;21011;-83
2022/12/26 13:06:16;;;;;;;4.40;2.20;;;9.90;99.90;;;;;;5017351;28;20517;-83
2022/12/26 13:08:46;;;;;;;3.70;2.97;;;9.40;99.90;;;;;;5016593;28;20461;-82
2022/12/26 13:11:20;;;;;;;5.70;5.20;;;9.00;99.90;;;;;;5016001;28;20829;-83
2022/12/26 13:13:49;;;;;;;18.37;17.23;;;8.90;99.90;;;;;;5016945;28;20473;-83
2022/12/26 13:16:18;;;;;;;193.83;187.87;;;9.00;99.90;;;;;;5018232;28;20505;-83
2022/12/26 13:18:51;;;;;;;65.90;63.50;;;9.10;99.90;;;;;;5017235;28;20449;-84
2022/12/26 13:21:19;;;;;;;176.57;170.83;;;9.10;99.90;;;;;;5016450;28;20454;-82
2022/12/26 13:26:39;;;;;;;296.17;286.37;;;9.20;99.90;;;;;;5014249;28;20429;-83
2022/12/26 13:29:12;;;;;;;197.97;191.53;;;9.20;99.90;;;;;;5015485;28;20460;-83
2022/12/26 13:32:15;;;;;;;149.23;144.30;;;9.20;99.90;;;;;;5017074;28;20453;-83
2022/12/26 13:38:07;;;;;;;196.83;189.37;;;9.20;99.90;;;;;;5012949;28;20461;-82
2022/12/26 13:40:35;;;;;;;237.40;229.17;;;9.20;99.90;;;;;;5016039;28;20544;-82
2022/12/26 13:46:00;;;;;;;210.77;203.37;;;8.80;99.90;;;;;;5016456;28;20448;-82
2022/12/26 13:48:58;;;;;;;233.83;225.97;;;8.70;99.90;;;;;;5016132;28;20534;-83
2022/12/26 13:51:52;;;;;;;107.27;103.47;;;8.60;99.90;;;;;;4996422;28;20449;-82
2022/12/26 13:54:21;;;;;;;88.27;84.97;;;8.40;99.90;;;;;;5016685;28;20476;-83
2022/12/26 13:57:27;;;;;;;73.00;70.27;;;8.30;99.90;;;;;;5015737;28;20477;-83
2022/12/26 14:00:14;;;;;;;64.43;61.67;;;8.20;99.90;;;;;;5011878;28;20468;-82
2022/12/26 14:03:15;;;;;;;87.00;83.77;;;8.10;99.90;;;;;;5011855;28;20471;-84
2022/12/26 14:06:11;;;;;;;160.67;155.10;;;8.20;99.90;;;;;;5016556;28;20853;-83
2022/12/26 14:08:46;;;;;;;196.30;189.43;;;8.20;99.90;;;;;;5015055;28;20505;-83
2022/12/26 14:11:28;;;;;;;175.13;168.30;;;8.30;99.90;;;;;;5016501;28;20468;-82
2022/12/26 14:14:07;;;;;;;191.47;184.90;;;8.20;99.90;;;;;;5016444;28;21001;-82
2022/12/26 14:16:47;;;;;;;191.40;184.73;;;8.20;99.90;;;;;;5017048;28;20523;-82
2022/12/26 14:19:29;;;;;;;184.67;178.03;;;8.20;99.90;;;;;;5017548;28;21153;-83
2022/12/26 14:22:03;;;;;;;126.73;122.37;;;8.20;99.90;;;;;;5017576;28;20455;-83
2022/12/26 14:30:55;;;;;;;74.83;71.23;;;8.00;99.90;;;;;;4904984;28;20482;-84
2022/12/26 14:34:30;;;;;;;38.73;37.03;;;8.00;99.90;;;;;;5018045;28;20473;-83
2022/12/26 14:40:29;;;;;;;25.20;24.00;;;7.90;99.90;;;;;;4940118;28;20853;-84
2022/12/26 14:43:25;;;;;;;100.93;97.43;;;7.80;99.90;;;;;;4956206;29;20482;-83
2022/12/26 14:45:57;;;;;;;115.40;111.50;;;8.00;99.90;;;;;;4956744;28;20448;-83
2022/12/26 14:49:14;;;;;;;30.60;29.00;;;7.90;99.90;;;;;;4959787;29;20489;-84
2022/12/26 14:52:39;;;;;;;15.87;14.80;;;7.70;99.90;;;;;;5002328;28;20473;-83
2022/12/26 14:55:42;;;;;;;12.50;9.83;;;7.60;99.90;;;;;;5001637;28;20464;-83
2022/12/26 14:58:42;;;;;;;6.10;5.50;;;7.50;99.90;;;;;;5001417;28;20453;-84
2022/12/26 15:05:11;;;;;;;5.10;3.10;;;7.40;99.90;;;;;;4983751;28;20481;-84
2022/12/26 15:08:15;;;;;;;7.90;3.80;;;7.30;99.90;;;;;;4980065;28;20509;-84
2022/12/26 15:11:02;;;;;;;11.53;3.30;;;7.30;99.90;;;;;;5019464;28;20828;-84
2022/12/26 15:14:19;;;;;;;7.30;3.80;;;7.30;99.90;;;;;;5016372;28;20483;-84
2022/12/26 15:17:03;;;;;;;9.67;5.70;;;7.40;99.90;;;;;;5020556;28;20481;-82
2022/12/26 15:20:10;;;;;;;8.57;7.67;;;7.30;99.90;;;;;;5020502;28;20467;-84
2022/12/26 15:23:32;;;;;;;10.07;8.00;;;7.30;99.90;;;;;;5021608;28;20449;-84
2022/12/26 15:26:53;;;;;;;11.13;9.80;;;7.30;99.90;;;;;;4988348;28;20822;-84
2022/12/26 15:29:50;;;;;;;10.93;7.70;;;7.40;99.90;;;;;;4997526;28;20445;-84
2022/12/26 15:42:34;;;;;;;14.60;9.30;;;7.10;99.90;;;;;;4982597;28;20445;-84
2022/12/26 15:45:38;;;;;;;8.20;4.33;;;7.10;99.90;;;;;;5019902;28;20460;-84
2022/12/26 15:51:32;;;;;;;7.03;3.27;;;7.30;99.90;;;;;;4883971;29;20463;-83
2022/12/26 15:54:22;;;;;;;6.07;3.40;;;7.20;99.90;;;;;;5081432;22;20486;-81
2022/12/26 15:56:59;;;;;;;9.00;5.50;;;7.20;99.90;;;;;;5059841;28;20475;-82
2022/12/26 15:59:53;;;;;;;9.03;6.30;;;7.10;99.90;;;;;;5060163;28;20451;-82
2022/12/26 16:02:40;;;;;;;8.67;3.37;;;7.20;99.90;;;;;;5059973;28;20451;-82
2022/12/26 16:05:39;;;;;;;8.07;3.40;;;7.10;99.90;;;;;;5040617;28;20448;-82
2022/12/26 16:08:24;;;;;;;5.20;2.77;;;7.10;99.90;;;;;;5041376;28;20476;-83
2022/12/26 16:14:29;;;;;;;9.90;3.20;;;7.10;99.90;;;;;;5035420;28;20480;-81
2022/12/26 16:17:10;;;;;;;7.03;2.43;;;7.00;99.90;;;;;;5039577;28;20476;-83